sensor_id;sensor_type;location;lat;lon;timestamp;pressure;altitude;pressure_sealevel;temperature;humidity
77725;BME280;66892;53.236;6.550;2024-02-26T00:00:57;100439.00;;;1.27;100.00
77725;BME280;66892;53.236;6.550;2024-02-26T00:03:23;100439.91;;;1.29;100.00
77725;BME280;66892;53.236;6.550;2024-02-26T00:05:49;100440.84;;;1.31;100.00
77725;BME280;66892;53.236;6.550;2024-02-26T00:08:15;100435.81;;;1.38;100.00
77725;BME280;66892;53.236;6.550;2024-02-26T00:10:41;100441.09;;;1.41;100.00
77725;BME280;66892;53.236;6.550;2024-02-26T00:13:08;100440.16;;;1.38;100.00
77725;BME280;66892;53.236;6.550;2024-02-26T00:15:35;100439.44;;;1.43;100.00
77725;BME280;66892;53.236;6.550;2024-02-26T00:18:02;100442.94;;;1.44;100.00
77725;BME280;66892;53.236;6.550;2024-02-26T00:20:28;100433.22;;;1.38;100.00
77725;BME280;66892;53.236;6.550;2024-02-26T00:22:54;100442.34;;;1.54;100.00
77725;BME280;66892;53.236;6.550;2024-02-26T00:25:20;100438.25;;;1.64;100.00
77725;BME280;66892;53.236;6.550;2024-02-26T00:27:46;100439.38;;;1.75;100.00
77725;BME280;66892;53.236;6.550;2024-02-26T00:30:12;100432.38;;;1.72;100.00
77725;BME280;66892;53.236;6.550;2024-02-26T00:32:39;100434.84;;;1.68;100.00
77725;BME280;66892;53.236;6.550;2024-02-26T00:35:06;100441.09;;;1.73;100.00
77725;BME280;66892;53.236;6.550;2024-02-26T00:37:32;100440.19;;;1.72;100.00
77725;BME280;66892;53.236;6.550;2024-02-26T00:39:58;100444.41;;;1.67;100.00
77725;BME280;66892;53.236;6.550;2024-02-26T00:42:24;100447.66;;;1.58;100.00
77725;BME280;66892;53.236;6.550;2024-02-26T00:44:50;100444.13;;;1.56;100.00
77725;BME280;66892;53.236;6.550;2024-02-26T00:47:16;100451.75;;;1.49;100.00
77725;BME280;66892;53.236;6.550;2024-02-26T00:49:44;100450.84;;;1.47;100.00
77725;BME280;66892;53.236;6.550;2024-02-26T00:52:10;100457.03;;;1.52;100.00
77725;BME280;66892;53.236;6.550;2024-02-26T00:54:36;100459.88;;;1.61;100.00
77725;BME280;66892;53.236;6.550;2024-02-26T00:57:02;100451.22;;;1.62;100.00
77725;BME280;66892;53.236;6.550;2024-02-26T00:59:28;100454.66;;;1.61;100.00
77725;BME280;66892;53.236;6.550;2024-02-26T01:01:54;100454.94;;;1.72;100.00
77725;BME280;66892;53.236;6.550;2024-02-26T01:04:20;100465.22;;;1.66;100.00
77725;BME280;66892;53.236;6.550;2024-02-26T01:06:47;100454.81;;;1.67;100.00
77725;BME280;66892;53.236;6.550;2024-02-26T01:09:13;100467.91;;;1.69;100.00
77725;BME280;66892;53.236;6.550;2024-02-26T01:11:39;100457.44;;;1.67;100.00
77725;BME280;66892;53.236;6.550;2024-02-26T01:14:05;100449.44;;;1.59;100.00
77725;BME280;66892;53.236;6.550;2024-02-26T01:16:32;100455.47;;;1.58;100.00
77725;BME280;66892;53.236;6.550;2024-02-26T01:18:58;100460.59;;;1.55;100.00
77725;BME280;66892;53.236;6.550;2024-02-26T01:21:24;100464.03;;;1.54;100.00
77725;BME280;66892;53.236;6.550;2024-02-26T01:23:51;100463.97;;;1.51;100.00
77725;BME280;66892;53.236;6.550;2024-02-26T01:26:17;100467.50;;;1.53;100.00
77725;BME280;66892;53.236;6.550;2024-02-26T01:28:43;100474.47;;;1.54;100.00
77725;BME280;66892;53.236;6.550;2024-02-26T01:31:09;100476.00;;;1.46;100.00
77725;BME280;66892;53.236;6.550;2024-02-26T01:33:36;100480.25;;;1.43;100.00
77725;BME280;66892;53.236;6.550;2024-02-26T01:36:02;100479.25;;;1.38;100.00
77725;BME280;66892;53.236;6.550;2024-02-26T01:38:28;100474.63;;;1.29;100.00
77725;BME280;66892;53.236;6.550;2024-02-26T01:40:55;100483.34;;;1.30;100.00
77725;BME280;66892;53.236;6.550;2024-02-26T01:43:22;100477.25;;;1.29;100.00
77725;BME280;66892;53.236;6.550;2024-02-26T01:45:48;100480.63;;;1.25;100.00
77725;BME280;66892;53.236;6.550;2024-02-26T01:48:14;100489.28;;;1.24;100.00
77725;BME280;66892;53.236;6.550;2024-02-26T01:50:40;100480.50;;;1.21;100.00
77725;BME280;66892;53.236;6.550;2024-02-26T01:53:07;100484.63;;;1.14;100.00
77725;BME280;66892;53.236;6.550;2024-02-26T01:55:34;100488.22;;;1.18;100.00
77725;BME280;66892;53.236;6.550;2024-02-26T01:58:02;100487.72;;;1.31;100.00
77725;BME280;66892;53.236;6.550;2024-02-26T02:00:28;100481.47;;;1.26;100.00
77725;BME280;66892;53.236;6.550;2024-02-26T02:02:54;100483.25;;;1.27;100.00
77725;BME280;66892;53.236;6.550;2024-02-26T02:05:21;100484.16;;;1.27;100.00
77725;BME280;66892;53.236;6.550;2024-02-26T02:07:48;100485.63;;;1.19;100.00
77725;BME280;66892;53.236;6.550;2024-02-26T02:10:15;100490.00;;;1.19;100.00
77725;BME280;66892;53.236;6.550;2024-02-26T02:12:41;100483.91;;;1.20;100.00
77725;BME280;66892;53.236;6.550;2024-02-26T02:15:09;100479.47;;;1.16;100.00
77725;BME280;66892;53.236;6.550;2024-02-26T02:17:36;100476.75;;;1.11;100.00
77725;BME280;66892;53.236;6.550;2024-02-26T02:20:02;100475.72;;;1.06;100.00
77725;BME280;66892;53.236;6.550;2024-02-26T02:22:30;100481.22;;;1.17;100.00
77725;BME280;66892;53.236;6.550;2024-02-26T02:24:58;100478.34;;;1.37;100.00
77725;BME280;66892;53.236;6.550;2024-02-26T02:27:25;100482.84;;;1.43;100.00
77725;BME280;66892;53.236;6.550;2024-02-26T02:29:52;100477.78;;;1.47;100.00
77725;BME280;66892;53.236;6.550;2024-02-26T02:32:18;100486.09;;;1.67;100.00
77725;BME280;66892;53.236;6.550;2024-02-26T02:34:45;100479.00;;;1.62;100.00
77725;BME280;66892;53.236;6.550;2024-02-26T02:37:11;100492.16;;;1.66;100.00
77725;BME280;66892;53.236;6.550;2024-02-26T02:39:38;100483.22;;;1.56;100.00
77725;BME280;66892;53.236;6.550;2024-02-26T02:42:05;100479.28;;;1.39;100.00
77725;BME280;66892;53.236;6.550;2024-02-26T02:44:31;100483.69;;;1.42;100.00
77725;BME280;66892;53.236;6.550;2024-02-26T02:46:57;100491.50;;;1.42;100.00
77725;BME280;66892;53.236;6.550;2024-02-26T02:49:23;100500.25;;;1.44;100.00
77725;BME280;66892;53.236;6.550;2024-02-26T02:51:49;100491.56;;;1.43;100.00
77725;BME280;66892;53.236;6.550;2024-02-26T02:54:15;100501.03;;;1.41;100.00
77725;BME280;66892;53.236;6.550;2024-02-26T02:56:43;100509.66;;;1.39;100.00
77725;BME280;66892;53.236;6.550;2024-02-26T02:59:08;100510.63;;;1.42;100.00
77725;BME280;66892;53.236;6.550;2024-02-26T03:01:35;100515.56;;;1.33;100.00
77725;BME280;66892;53.236;6.550;2024-02-26T03:04:01;100514.75;;;1.34;100.00
77725;BME280;66892;53.236;6.550;2024-02-26T03:06:27;100515.66;;;1.36;100.00
77725;BME280;66892;53.236;6.550;2024-02-26T03:08:54;100519.38;;;1.44;100.00
77725;BME280;66892;53.236;6.550;2024-02-26T03:11:20;100528.84;;;1.42;100.00
77725;BME280;66892;53.236;6.550;2024-02-26T03:13:48;100524.28;;;1.35;100.00
77725;BME280;66892;53.236;6.550;2024-02-26T03:16:14;100530.41;;;1.36;100.00
77725;BME280;66892;53.236;6.550;2024-02-26T03:18:40;100532.19;;;1.38;100.00
77725;BME280;66892;53.236;6.550;2024-02-26T03:21:06;100540.72;;;1.33;100.00
77725;BME280;66892;53.236;6.550;2024-02-26T03:23:33;100541.69;;;1.35;100.00
77725;BME280;66892;53.236;6.550;2024-02-26T03:26:03;100544.31;;;1.36;100.00
77725;BME280;66892;53.236;6.550;2024-02-26T03:28:29;100551.56;;;1.46;100.00
77725;BME280;66892;53.236;6.550;2024-02-26T03:30:57;100555.94;;;1.47;100.00
77725;BME280;66892;53.236;6.550;2024-02-26T03:33:24;100555.78;;;1.43;100.00
77725;BME280;66892;53.236;6.550;2024-02-26T03:35:50;100553.28;;;1.46;100.00
77725;BME280;66892;53.236;6.550;2024-02-26T03:38:16;100559.38;;;1.46;100.00
77725;BME280;66892;53.236;6.550;2024-02-26T03:40:43;100565.50;;;1.48;100.00
77725;BME280;66892;53.236;6.550;2024-02-26T03:43:09;100568.00;;;1.44;100.00
77725;BME280;66892;53.236;6.550;2024-02-26T03:45:35;100569.66;;;1.42;100.00
77725;BME280;66892;53.236;6.550;2024-02-26T03:48:03;100575.88;;;1.47;100.00
77725;BME280;66892;53.236;6.550;2024-02-26T03:50:29;100566.44;;;1.50;100.00
77725;BME280;66892;53.236;6.550;2024-02-26T03:52:55;100567.91;;;1.41;100.00
77725;BME280;66892;53.236;6.550;2024-02-26T03:55:23;100573.28;;;1.47;100.00
77725;BME280;66892;53.236;6.550;2024-02-26T03:57:51;100567.22;;;1.48;100.00
77725;BME280;66892;53.236;6.550;2024-02-26T04:00:18;100575.81;;;1.44;100.00
77725;BME280;66892;53.236;6.550;2024-02-26T04:02:44;100577.53;;;1.43;100.00
77725;BME280;66892;53.236;6.550;2024-02-26T04:05:11;100586.06;;;1.38;100.00
77725;BME280;66892;53.236;6.550;2024-02-26T04:07:38;100584.72;;;1.52;100.00
77725;BME280;66892;53.236;6.550;2024-02-26T04:10:08;100589.13;;;1.54;100.00
77725;BME280;66892;53.236;6.550;2024-02-26T04:12:35;100594.28;;;1.53;100.00
77725;BME280;66892;53.236;6.550;2024-02-26T04:15:01;100589.00;;;1.50;100.00
77725;BME280;66892;53.236;6.550;2024-02-26T04:17:27;100594.16;;;1.48;100.00
77725;BME280;66892;53.236;6.550;2024-02-26T04:19:53;100606.66;;;1.60;100.00
77725;BME280;66892;53.236;6.550;2024-02-26T04:22:20;100597.97;;;1.59;100.00
77725;BME280;66892;53.236;6.550;2024-02-26T04:24:46;100604.22;;;1.66;100.00
77725;BME280;66892;53.236;6.550;2024-02-26T04:27:12;100602.53;;;1.67;100.00
77725;BME280;66892;53.236;6.550;2024-02-26T04:29:38;100593.72;;;1.63;100.00
77725;BME280;66892;53.236;6.550;2024-02-26T04:32:04;100592.53;;;1.52;100.00
77725;BME280;66892;53.236;6.550;2024-02-26T04:34:31;100595.94;;;1.49;100.00
77725;BME280;66892;53.236;6.550;2024-02-26T04:36:57;100603.69;;;1.48;100.00
77725;BME280;66892;53.236;6.550;2024-02-26T04:39:24;100604.84;;;1.57;100.00
77725;BME280;66892;53.236;6.550;2024-02-26T04:41:51;100612.66;;;1.57;100.00
77725;BME280;66892;53.236;6.550;2024-02-26T04:44:17;100608.06;;;1.49;100.00
77725;BME280;66892;53.236;6.550;2024-02-26T04:46:43;100608.81;;;1.45;100.00
77725;BME280;66892;53.236;6.550;2024-02-26T04:49:09;100612.13;;;1.39;100.00
77725;BME280;66892;53.236;6.550;2024-02-26T04:51:36;100606.00;;;1.37;100.00
77725;BME280;66892;53.236;6.550;2024-02-26T04:54:03;100609.78;;;1.48;100.00
77725;BME280;66892;53.236;6.550;2024-02-26T04:56:30;100620.22;;;1.48;100.00
77725;BME280;66892;53.236;6.550;2024-02-26T04:58:56;100622.22;;;1.57;100.00
77725;BME280;66892;53.236;6.550;2024-02-26T05:01:22;100619.63;;;1.57;100.00
77725;BME280;66892;53.236;6.550;2024-02-26T05:03:49;100626.41;;;1.52;100.00
77725;BME280;66892;53.236;6.550;2024-02-26T05:06:15;100636.00;;;1.53;100.00
77725;BME280;66892;53.236;6.550;2024-02-26T05:08:41;100628.16;;;1.53;100.00
77725;BME280;66892;53.236;6.550;2024-02-26T05:11:07;100629.19;;;1.58;100.00
77725;BME280;66892;53.236;6.550;2024-02-26T05:13:34;100634.88;;;1.75;100.00
77725;BME280;66892;53.236;6.550;2024-02-26T05:16:00;100646.19;;;1.75;100.00
77725;BME280;66892;53.236;6.550;2024-02-26T05:18:27;100640.91;;;1.72;100.00
77725;BME280;66892;53.236;6.550;2024-02-26T05:20:53;100641.81;;;1.74;100.00
77725;BME280;66892;53.236;6.550;2024-02-26T05:23:19;100642.53;;;1.69;100.00
77725;BME280;66892;53.236;6.550;2024-02-26T05:25:45;100649.88;;;1.83;100.00
77725;BME280;66892;53.236;6.550;2024-02-26T05:28:13;100656.00;;;1.84;100.00
77725;BME280;66892;53.236;6.550;2024-02-26T05:30:42;100653.34;;;1.82;100.00
77725;BME280;66892;53.236;6.550;2024-02-26T05:33:08;100669.00;;;1.82;100.00
77725;BME280;66892;53.236;6.550;2024-02-26T05:35:34;100662.16;;;1.86;100.00
77725;BME280;66892;53.236;6.550;2024-02-26T05:38:00;100661.44;;;1.91;100.00
77725;BME280;66892;53.236;6.550;2024-02-26T05:40:26;100669.25;;;1.91;100.00
77725;BME280;66892;53.236;6.550;2024-02-26T05:42:52;100673.63;;;1.92;100.00
77725;BME280;66892;53.236;6.550;2024-02-26T05:45:18;100673.63;;;1.92;100.00
77725;BME280;66892;53.236;6.550;2024-02-26T05:47:46;100672.75;;;1.92;100.00
77725;BME280;66892;53.236;6.550;2024-02-26T05:50:12;100685.81;;;1.93;100.00
77725;BME280;66892;53.236;6.550;2024-02-26T05:52:39;100684.16;;;1.95;100.00
77725;BME280;66892;53.236;6.550;2024-02-26T05:55:06;100689.47;;;1.98;100.00
77725;BME280;66892;53.236;6.550;2024-02-26T05:57:33;100685.06;;;1.97;100.00
77725;BME280;66892;53.236;6.550;2024-02-26T05:59:59;100691.19;;;1.98;100.00
77725;BME280;66892;53.236;6.550;2024-02-26T06:02:29;100683.34;;;1.98;100.00
77725;BME280;66892;53.236;6.550;2024-02-26T06:04:56;100691.97;;;1.95;100.00
77725;BME280;66892;53.236;6.550;2024-02-26T06:07:23;100688.41;;;1.92;100.00
77725;BME280;66892;53.236;6.550;2024-02-26T06:09:49;100701.53;;;1.95;100.00
77725;BME280;66892;53.236;6.550;2024-02-26T06:12:16;100701.47;;;1.93;100.00
77725;BME280;66892;53.236;6.550;2024-02-26T06:14:42;100700.72;;;1.97;100.00
77725;BME280;66892;53.236;6.550;2024-02-26T06:17:08;100704.38;;;2.04;100.00
77725;BME280;66892;53.236;6.550;2024-02-26T06:19:34;100710.44;;;2.03;100.00
77725;BME280;66892;53.236;6.550;2024-02-26T06:22:02;100719.06;;;2.00;100.00
77725;BME280;66892;53.236;6.550;2024-02-26T06:24:28;100713.81;;;1.99;100.00
77725;BME280;66892;53.236;6.550;2024-02-26T06:26:54;100724.19;;;1.97;100.00
77725;BME280;66892;53.236;6.550;2024-02-26T06:29:20;100718.16;;;2.00;100.00
77725;BME280;66892;53.236;6.550;2024-02-26T06:31:46;100724.28;;;2.00;100.00
77725;BME280;66892;53.236;6.550;2024-02-26T06:34:14;100726.25;;;2.09;100.00
77725;BME280;66892;53.236;6.550;2024-02-26T06:36:40;100730.59;;;2.08;100.00
77725;BME280;66892;53.236;6.550;2024-02-26T06:39:07;100728.59;;;2.00;100.00
77725;BME280;66892;53.236;6.550;2024-02-26T06:41:34;100732.09;;;2.00;100.00
77725;BME280;66892;53.236;6.550;2024-02-26T06:44:00;100733.06;;;2.04;100.00
77725;BME280;66892;53.236;6.550;2024-02-26T06:46:26;100740.97;;;2.07;100.00
77725;BME280;66892;53.236;6.550;2024-02-26T06:48:52;100748.78;;;2.05;100.00
77725;BME280;66892;53.236;6.550;2024-02-26T06:51:18;100746.19;;;2.07;100.00
77725;BME280;66892;53.236;6.550;2024-02-26T06:53:44;100751.50;;;2.10;100.00
77725;BME280;66892;53.236;6.550;2024-02-26T06:56:11;100745.41;;;2.09;100.00
77725;BME280;66892;53.236;6.550;2024-02-26T06:58:37;100745.53;;;2.14;100.00
77725;BME280;66892;53.236;6.550;2024-02-26T07:01:03;100754.25;;;2.15;100.00
77725;BME280;66892;53.236;6.550;2024-02-26T07:03:29;100754.34;;;2.18;100.00
77725;BME280;66892;53.236;6.550;2024-02-26T07:05:56;100759.59;;;2.19;100.00
77725;BME280;66892;53.236;6.550;2024-02-26T07:08:22;100763.97;;;2.20;100.00
77725;BME280;66892;53.236;6.550;2024-02-26T07:10:48;100758.59;;;2.16;100.00
77725;BME280;66892;53.236;6.550;2024-02-26T07:13:16;100770.72;;;2.13;100.00
77725;BME280;66892;53.236;6.550;2024-02-26T07:15:42;100769.28;;;2.23;100.00
77725;BME280;66892;53.236;6.550;2024-02-26T07:18:08;100776.22;;;2.23;100.00
77725;BME280;66892;53.236;6.550;2024-02-26T07:20:34;100774.34;;;2.19;100.00
77725;BME280;66892;53.236;6.550;2024-02-26T07:23:00;100783.84;;;2.15;100.00
77725;BME280;66892;53.236;6.550;2024-02-26T07:25:26;100784.66;;;2.14;100.00
77725;BME280;66892;53.236;6.550;2024-02-26T07:27:52;100783.94;;;2.20;100.00
77725;BME280;66892;53.236;6.550;2024-02-26T07:30:20;100788.38;;;2.22;100.00
77725;BME280;66892;53.236;6.550;2024-02-26T07:32:46;100790.31;;;2.29;100.00
77725;BME280;66892;53.236;6.550;2024-02-26T07:35:12;100791.22;;;2.30;100.00
77725;BME280;66892;53.236;6.550;2024-02-26T07:37:38;100792.91;;;2.28;100.00
77725;BME280;66892;53.236;6.550;2024-02-26T07:40:05;100806.13;;;2.34;100.00
77725;BME280;66892;53.236;6.550;2024-02-26T07:42:31;100802.66;;;2.35;100.00
77725;BME280;66892;53.236;6.550;2024-02-26T07:44:57;100804.50;;;2.39;100.00
77725;BME280;66892;53.236;6.550;2024-02-26T07:47:25;100799.38;;;2.42;100.00
77725;BME280;66892;53.236;6.550;2024-02-26T07:49:51;100796.06;;;2.47;100.00
77725;BME280;66892;53.236;6.550;2024-02-26T07:52:17;100807.38;;;2.48;100.00
77725;BME280;66892;53.236;6.550;2024-02-26T07:54:43;100809.22;;;2.50;100.00
77725;BME280;66892;53.236;6.550;2024-02-26T07:57:09;100814.69;;;2.59;100.00
77725;BME280;66892;53.236;6.550;2024-02-26T07:59:35;100823.34;;;2.58;100.00
77725;BME280;66892;53.236;6.550;2024-02-26T08:02:01;100825.38;;;2.69;100.00
77725;BME280;66892;53.236;6.550;2024-02-26T08:04:30;100825.41;;;2.70;100.00
77725;BME280;66892;53.236;6.550;2024-02-26T08:06:57;100826.31;;;2.71;100.00
77725;BME280;66892;53.236;6.550;2024-02-26T08:09:23;100826.34;;;2.72;100.00
77725;BME280;66892;53.236;6.550;2024-02-26T08:11:49;100841.13;;;2.72;100.00
77725;BME280;66892;53.236;6.550;2024-02-26T08:14:15;100834.28;;;2.75;100.00
77725;BME280;66892;53.236;6.550;2024-02-26T08:16:41;100830.81;;;2.76;100.00
77725;BME280;66892;53.236;6.550;2024-02-26T08:19:07;100830.06;;;2.80;100.00
77725;BME280;66892;53.236;6.550;2024-02-26T08:21:34;100841.53;;;2.87;100.00
77725;BME280;66892;53.236;6.550;2024-02-26T08:24:00;100839.00;;;2.88;100.00
77725;BME280;66892;53.236;6.550;2024-02-26T08:26:26;100834.69;;;2.90;100.00
77725;BME280;66892;53.236;6.550;2024-02-26T08:28:52;100829.69;;;2.99;100.00
77725;BME280;66892;53.236;6.550;2024-02-26T08:31:20;100825.34;;;2.98;100.00
77725;BME280;66892;53.236;6.550;2024-02-26T08:33:46;100834.16;;;3.03;100.00
77725;BME280;66892;53.236;6.550;2024-02-26T08:36:12;100830.84;;;3.09;100.00
77725;BME280;66892;53.236;6.550;2024-02-26T08:38:40;100837.84;;;3.10;100.00
77725;BME280;66892;53.236;6.550;2024-02-26T08:41:06;100850.16;;;3.14;100.00
77725;BME280;66892;53.236;6.550;2024-02-26T08:43:32;100857.16;;;3.16;100.00
77725;BME280;66892;53.236;6.550;2024-02-26T08:45:58;100864.34;;;3.24;100.00
77725;BME280;66892;53.236;6.550;2024-02-26T08:48:24;100872.44;;;3.34;100.00
77725;BME280;66892;53.236;6.550;2024-02-26T08:50:50;100881.25;;;3.38;100.00
77725;BME280;66892;53.236;6.550;2024-02-26T08:53:16;100883.78;;;3.35;100.00
77725;BME280;66892;53.236;6.550;2024-02-26T08:55:44;100879.72;;;3.46;100.00
77725;BME280;66892;53.236;6.550;2024-02-26T08:58:10;100879.06;;;3.54;100.00
77725;BME280;66892;53.236;6.550;2024-02-26T09:00:36;100877.28;;;3.53;100.00
77725;BME280;66892;53.236;6.550;2024-02-26T09:03:02;100878.31;;;3.58;100.00
77725;BME280;66892;53.236;6.550;2024-02-26T09:05:28;100880.22;;;3.65;100.00
77725;BME280;66892;53.236;6.550;2024-02-26T09:07:54;100874.22;;;3.69;100.00
77725;BME280;66892;53.236;6.550;2024-02-26T09:10:21;100882.25;;;3.76;100.00
77725;BME280;66892;53.236;6.550;2024-02-26T09:12:48;100881.41;;;3.78;100.00
77725;BME280;66892;53.236;6.550;2024-02-26T09:15:14;100888.47;;;3.82;100.00
77725;BME280;66892;53.236;6.550;2024-02-26T09:17:40;100891.00;;;3.79;100.00
77725;BME280;66892;53.236;6.550;2024-02-26T09:20:07;100906.78;;;3.82;100.00
77725;BME280;66892;53.236;6.550;2024-02-26T09:22:35;100900.84;;;3.89;100.00
77725;BME280;66892;53.236;6.550;2024-02-26T09:25:04;100899.19;;;3.91;100.00
77725;BME280;66892;53.236;6.550;2024-02-26T09:27:30;100911.53;;;3.97;100.00
77725;BME280;66892;53.236;6.550;2024-02-26T09:29:57;100901.06;;;3.97;100.00
77725;BME280;66892;53.236;6.550;2024-02-26T09:32:23;100902.84;;;3.99;100.00
77725;BME280;66892;53.236;6.550;2024-02-26T09:34:50;100919.56;;;4.04;100.00
77725;BME280;66892;53.236;6.550;2024-02-26T09:37:17;100917.88;;;4.08;100.00
77725;BME280;66892;53.236;6.550;2024-02-26T09:39:43;100924.19;;;4.16;100.00
77725;BME280;66892;53.236;6.550;2024-02-26T09:42:09;100917.38;;;4.22;100.00
77725;BME280;66892;53.236;6.550;2024-02-26T09:44:40;100921.91;;;4.30;100.00
77725;BME280;66892;53.236;6.550;2024-02-26T09:47:10;100913.25;;;4.34;100.00
77725;BME280;66892;53.236;6.550;2024-02-26T09:49:38;100924.72;;;4.39;100.00
77725;BME280;66892;53.236;6.550;2024-02-26T09:52:04;100930.03;;;4.42;100.00
77725;BME280;66892;53.236;6.550;2024-02-26T09:54:32;100933.63;;;4.47;100.00
77725;BME280;66892;53.236;6.550;2024-02-26T09:57:00;100937.19;;;4.50;100.00
77725;BME280;66892;53.236;6.550;2024-02-26T09:59:29;100934.00;;;4.62;100.00
77725;BME280;66892;53.236;6.550;2024-02-26T10:02:01;100942.69;;;4.61;100.00
77725;BME280;66892;53.236;6.550;2024-02-26T10:04:31;100956.59;;;4.58;100.00
77725;BME280;66892;53.236;6.550;2024-02-26T10:06:57;100951.56;;;4.67;100.00
77725;BME280;66892;53.236;6.550;2024-02-26T10:09:25;100959.69;;;4.79;100.00
77725;BME280;66892;53.236;6.550;2024-02-26T10:11:52;100973.72;;;4.83;100.00
77725;BME280;66892;53.236;6.550;2024-02-26T10:14:18;100960.69;;;4.85;100.00
77725;BME280;66892;53.236;6.550;2024-02-26T10:16:44;100959.94;;;4.92;100.00
77725;BME280;66892;53.236;6.550;2024-02-26T10:19:24;100968.88;;;5.01;100.00
77725;BME280;66892;53.236;6.550;2024-02-26T10:21:56;100971.44;;;4.98;100.00
77725;BME280;66892;53.236;6.550;2024-02-26T10:24:22;100975.72;;;4.95;100.00
77725;BME280;66892;53.236;6.550;2024-02-26T10:26:48;100980.97;;;4.95;100.00
77725;BME280;66892;53.236;6.550;2024-02-26T10:29:14;100985.38;;;4.96;100.00
77725;BME280;66892;53.236;6.550;2024-02-26T10:31:42;100993.28;;;4.99;100.00
77725;BME280;66892;53.236;6.550;2024-02-26T10:34:08;101000.19;;;4.95;100.00
77725;BME280;66892;53.236;6.550;2024-02-26T10:36:34;100993.16;;;4.91;100.00
77725;BME280;66892;53.236;6.550;2024-02-26T10:39:04;101001.78;;;4.89;100.00
77725;BME280;66892;53.236;6.550;2024-02-26T10:41:32;101012.38;;;4.93;100.00
77725;BME280;66892;53.236;6.550;2024-02-26T10:43:59;100998.63;;;5.03;100.00
77725;BME280;66892;53.236;6.550;2024-02-26T10:46:25;101008.44;;;5.12;100.00
77725;BME280;66892;53.236;6.550;2024-02-26T10:48:52;101012.88;;;5.16;100.00
77725;BME280;66892;53.236;6.550;2024-02-26T10:51:20;101008.53;;;5.16;100.00
77725;BME280;66892;53.236;6.550;2024-02-26T10:53:47;101018.25;;;5.22;100.00
77725;BME280;66892;53.236;6.550;2024-02-26T10:56:18;101022.72;;;5.27;100.00
77725;BME280;66892;53.236;6.550;2024-02-26T10:58:45;101024.53;;;5.30;100.00
77725;BME280;66892;53.236;6.550;2024-02-26T11:01:12;101021.97;;;5.33;100.00
77725;BME280;66892;53.236;6.550;2024-02-26T11:03:39;101028.88;;;5.28;100.00
77725;BME280;66892;53.236;6.550;2024-02-26T11:06:06;101036.72;;;5.26;100.00
77725;BME280;66892;53.236;6.550;2024-02-26T11:08:32;101038.59;;;5.33;100.00
77725;BME280;66892;53.236;6.550;2024-02-26T11:10:59;101033.34;;;5.32;100.00
77725;BME280;66892;53.236;6.550;2024-02-26T11:13:28;101038.50;;;5.29;100.00
77725;BME280;66892;53.236;6.550;2024-02-26T11:15:56;101033.28;;;5.29;100.00
77725;BME280;66892;53.236;6.550;2024-02-26T11:18:26;101034.88;;;5.24;100.00
77725;BME280;66892;53.236;6.550;2024-02-26T11:20:54;101039.28;;;5.25;100.00
77725;BME280;66892;53.236;6.550;2024-02-26T11:23:23;101042.88;;;5.30;100.00
77725;BME280;66892;53.236;6.550;2024-02-26T11:25:50;101049.88;;;5.29;100.00
77725;BME280;66892;53.236;6.550;2024-02-26T11:28:19;101048.03;;;5.25;100.00
77725;BME280;66892;53.236;6.550;2024-02-26T11:30:48;101060.31;;;5.26;100.00
77725;BME280;66892;53.236;6.550;2024-02-26T11:33:15;101063.00;;;5.31;100.00
77725;BME280;66892;53.236;6.550;2024-02-26T11:35:42;101058.72;;;5.35;100.00
77725;BME280;66892;53.236;6.550;2024-02-26T11:38:08;101071.13;;;5.42;100.00
77725;BME280;66892;53.236;6.550;2024-02-26T11:40:44;101065.09;;;5.46;100.00
77725;BME280;66892;53.236;6.550;2024-02-26T11:43:10;101076.53;;;5.51;100.00
77725;BME280;66892;53.236;6.550;2024-02-26T11:45:50;101078.28;;;5.50;100.00
77725;BME280;66892;53.236;6.550;2024-02-26T11:48:22;101068.91;;;5.61;100.00
77725;BME280;66892;53.236;6.550;2024-02-26T11:50:50;101077.81;;;5.69;100.00
77725;BME280;66892;53.236;6.550;2024-02-26T11:53:20;101078.75;;;5.71;100.00
77725;BME280;66892;53.236;6.550;2024-02-26T11:55:46;101077.84;;;5.72;100.00
77725;BME280;66892;53.236;6.550;2024-02-26T11:58:12;101078.75;;;5.71;100.00
77725;BME280;66892;53.236;6.550;2024-02-26T12:00:40;101089.31;;;5.76;100.00
77725;BME280;66892;53.236;6.550;2024-02-26T12:03:08;101079.81;;;5.81;100.00
77725;BME280;66892;53.236;6.550;2024-02-26T12:05:36;101084.19;;;5.82;100.00
77725;BME280;66892;53.236;6.550;2024-02-26T12:08:04;101089.47;;;5.83;100.00
77725;BME280;66892;53.236;6.550;2024-02-26T12:10:33;101085.06;;;5.81;100.00
77725;BME280;66892;53.236;6.550;2024-02-26T12:13:06;101094.63;;;5.79;100.00
77725;BME280;66892;53.236;6.550;2024-02-26T12:15:36;101080.53;;;5.75;100.00
77725;BME280;66892;53.236;6.550;2024-02-26T12:18:04;101092.84;;;5.78;100.00
77725;BME280;66892;53.236;6.550;2024-02-26T12:20:32;101083.31;;;5.83;100.00
77725;BME280;66892;53.236;6.550;2024-02-26T12:22:58;101095.50;;;5.79;100.00
77725;BME280;66892;53.236;6.550;2024-02-26T12:25:25;101092.88;;;5.79;100.00
77725;BME280;66892;53.236;6.550;2024-02-26T12:27:52;101091.03;;;5.75;100.00
77725;BME280;66892;53.236;6.550;2024-02-26T12:30:19;101076.13;;;5.73;100.00
77725;BME280;66892;53.236;6.550;2024-02-26T12:32:45;101084.88;;;5.73;100.00
77725;BME280;66892;53.236;6.550;2024-02-26T12:35:12;101086.56;;;5.70;100.00
77725;BME280;66892;53.236;6.550;2024-02-26T12:37:40;101096.22;;;5.71;100.00
77725;BME280;66892;53.236;6.550;2024-02-26T12:40:08;101096.94;;;5.64;100.00
77725;BME280;66892;53.236;6.550;2024-02-26T12:42:34;101102.19;;;5.65;100.00
77725;BME280;66892;53.236;6.550;2024-02-26T12:45:06;101103.13;;;5.67;100.00
77725;BME280;66892;53.236;6.550;2024-02-26T12:47:37;101104.81;;;5.64;100.00